<?xml version="1.0" encoding="UTF-8" standalone="no" ?>
<gpx xmlns="http://www.topografix.com/GPX/1/1" xmlns:xsi="http://www.w3.org/2001/XMLSchema-instance" xsi:schemaLocation="http://www.topografix.com/GPX/1/1 http://www.topografix.com/GPX/1/1/gpx.xsd" version="1.1" creator="VisuGPX - https://www.visugpx.com">
  <metadata>
    <name>DAMPIERRE 1</name>
    <desc><![CDATA[Marche Nordique avec départ et arrivée devant le chateau de Dampierre. 
Parcours incluant une partie du sentiers des découvertes de Maincourt;
Très varié: foret avec rochers, traversée de champs et de village.Trés apprécié des participants.]]></desc>
  </metadata>
  <trk>
    <name><![CDATA[Dampierre-1]]></name>
    <trkseg>
      <trkpt lat="48.70599" lon="1.98697">
        <ele>126.55</ele>
        <time>2016-03-24T10:56:21Z</time>
      </trkpt>
      <trkpt lat="48.70598" lon="1.98692">
        <ele>112.61</ele>
        <time>2016-03-24T10:55:34Z</time>
      </trkpt>
      <trkpt lat="48.70598" lon="1.98695">
        <ele>113.57</ele>
        <time>2016-03-24T10:54:37Z</time>
      </trkpt>
      <trkpt lat="48.70601" lon="1.98692">
        <ele>115.01</ele>
        <time>2016-03-24T10:53:06Z</time>
      </trkpt>
      <trkpt lat="48.70601" lon="1.98695">
        <ele>115.5</ele>
        <time>2016-03-24T10:52:26Z</time>
      </trkpt>
      <trkpt lat="48.70598" lon="1.98692">
        <ele>116.46</ele>
        <time>2016-03-24T10:51:57Z</time>
      </trkpt>
      <trkpt lat="48.706" lon="1.98694">
        <ele>116.46</ele>
        <time>2016-03-24T10:51:38Z</time>
      </trkpt>
      <trkpt lat="48.70595" lon="1.98685">
        <ele>117.42</ele>
        <time>2016-03-24T10:51:18Z</time>
      </trkpt>
      <trkpt lat="48.70594" lon="1.98683">
        <ele>117.42</ele>
        <time>2016-03-24T10:51:16Z</time>
      </trkpt>
      <trkpt lat="48.70588" lon="1.98673">
        <ele>117.42</ele>
        <time>2016-03-24T10:51:02Z</time>
      </trkpt>
      <trkpt lat="48.70591" lon="1.98672">
        <ele>117.42</ele>
        <time>2016-03-24T10:50:41Z</time>
      </trkpt>
      <trkpt lat="48.70593" lon="1.98668">
        <ele>117.9</ele>
        <time>2016-03-24T10:50:30Z</time>
      </trkpt>
      <trkpt lat="48.70595" lon="1.98662">
        <ele>118.38</ele>
        <time>2016-03-24T10:50:16Z</time>
      </trkpt>
      <trkpt lat="48.70597" lon="1.98661">
        <ele>118.38</ele>
        <time>2016-03-24T10:50:14Z</time>
      </trkpt>
      <trkpt lat="48.70597" lon="1.98661">
        <ele>118.38</ele>
        <time>2016-03-24T10:49:59Z</time>
      </trkpt>
      <trkpt lat="48.70594" lon="1.98658">
        <ele>118.86</ele>
        <time>2016-03-24T10:49:28Z</time>
      </trkpt>
      <trkpt lat="48.70585" lon="1.98663">
        <ele>118.86</ele>
        <time>2016-03-24T10:49:14Z</time>
      </trkpt>
      <trkpt lat="48.7058" lon="1.9866">
        <ele>119.34</ele>
        <time>2016-03-24T10:49:07Z</time>
      </trkpt>
      <trkpt lat="48.70573" lon="1.98653">
        <ele>119.34</ele>
        <time>2016-03-24T10:48:58Z</time>
      </trkpt>
      <trkpt lat="48.70564" lon="1.98641">
        <ele>120.3</ele>
        <time>2016-03-24T10:48:40Z</time>
      </trkpt>
      <trkpt lat="48.70559" lon="1.98631">
        <ele>120.78</ele>
        <time>2016-03-24T10:48:19Z</time>
      </trkpt>
      <trkpt lat="48.70566" lon="1.98619">
        <ele>122.71</ele>
        <time>2016-03-24T10:48:01Z</time>
      </trkpt>
      <trkpt lat="48.70582" lon="1.98613">
        <ele>125.59</ele>
        <time>2016-03-24T10:47:45Z</time>
      </trkpt>
      <trkpt lat="48.70592" lon="1.98606">
        <ele>128.95</ele>
        <time>2016-03-24T10:47:31Z</time>
      </trkpt>
      <trkpt lat="48.70598" lon="1.98599">
        <ele>131.84</ele>
        <time>2016-03-24T10:47:21Z</time>
      </trkpt>
      <trkpt lat="48.70609" lon="1.98587">
        <ele>135.2</ele>
        <time>2016-03-24T10:47:08Z</time>
      </trkpt>
      <trkpt lat="48.70609" lon="1.98584">
        <ele>135.68</ele>
        <time>2016-03-24T10:47:05Z</time>
      </trkpt>
      <trkpt lat="48.70614" lon="1.98577">
        <ele>138.57</ele>
        <time>2016-03-24T10:46:55Z</time>
      </trkpt>
      <trkpt lat="48.70622" lon="1.98577">
        <ele>139.05</ele>
        <time>2016-03-24T10:46:51Z</time>
      </trkpt>
      <trkpt lat="48.70633" lon="1.98576">
        <ele>140.97</ele>
        <time>2016-03-24T10:46:35Z</time>
      </trkpt>
      <trkpt lat="48.70647" lon="1.98571">
        <ele>143.85</ele>
        <time>2016-03-24T10:46:16Z</time>
      </trkpt>
      <trkpt lat="48.70648" lon="1.98571">
        <ele>143.85</ele>
        <time>2016-03-24T10:46:15Z</time>
      </trkpt>
      <trkpt lat="48.70653" lon="1.98556">
        <ele>144.82</ele>
        <time>2016-03-24T10:45:54Z</time>
      </trkpt>
      <trkpt lat="48.70655" lon="1.9856">
        <ele>145.3</ele>
        <time>2016-03-24T10:45:48Z</time>
      </trkpt>
      <trkpt lat="48.70665" lon="1.98558">
        <ele>147.22</ele>
        <time>2016-03-24T10:45:30Z</time>
      </trkpt>
      <trkpt lat="48.70675" lon="1.98547">
        <ele>148.66</ele>
        <time>2016-03-24T10:45:11Z</time>
      </trkpt>
      <trkpt lat="48.70679" lon="1.98539">
        <ele>149.62</ele>
        <time>2016-03-24T10:44:46Z</time>
      </trkpt>
      <trkpt lat="48.70677" lon="1.98528">
        <ele>149.62</ele>
        <time>2016-03-24T10:44:25Z</time>
      </trkpt>
      <trkpt lat="48.70691" lon="1.98541">
        <ele>150.1</ele>
        <time>2016-03-24T10:43:32Z</time>
      </trkpt>
      <trkpt lat="48.70682" lon="1.98529">
        <ele>151.06</ele>
        <time>2016-03-24T10:42:41Z</time>
      </trkpt>
      <trkpt lat="48.70689" lon="1.98538">
        <ele>152.03</ele>
        <time>2016-03-24T10:41:44Z</time>
      </trkpt>
      <trkpt lat="48.70684" lon="1.98529">
        <ele>152.99</ele>
        <time>2016-03-24T10:40:46Z</time>
      </trkpt>
      <trkpt lat="48.70687" lon="1.98535">
        <ele>153.95</ele>
        <time>2016-03-24T10:39:58Z</time>
      </trkpt>
      <trkpt lat="48.70685" lon="1.98533">
        <ele>153.95</ele>
        <time>2016-03-24T10:39:56Z</time>
      </trkpt>
      <trkpt lat="48.70674" lon="1.98515">
        <ele>154.91</ele>
        <time>2016-03-24T10:38:58Z</time>
      </trkpt>
      <trkpt lat="48.70664" lon="1.98511">
        <ele>155.39</ele>
        <time>2016-03-24T10:38:34Z</time>
      </trkpt>
      <trkpt lat="48.70686" lon="1.98533">
        <ele>156.35</ele>
        <time>2016-03-24T10:37:49Z</time>
      </trkpt>
      <trkpt lat="48.70684" lon="1.98532">
        <ele>156.83</ele>
        <time>2016-03-24T10:37:08Z</time>
      </trkpt>
      <trkpt lat="48.70689" lon="1.98538">
        <ele>157.79</ele>
        <time>2016-03-24T10:36:23Z</time>
      </trkpt>
      <trkpt lat="48.70697" lon="1.98526">
        <ele>158.27</ele>
        <time>2016-03-24T10:35:57Z</time>
      </trkpt>
      <trkpt lat="48.70683" lon="1.98527">
        <ele>160.2</ele>
        <time>2016-03-24T10:35:21Z</time>
      </trkpt>
      <trkpt lat="48.70683" lon="1.98522">
        <ele>160.68</ele>
        <time>2016-03-24T10:34:57Z</time>
      </trkpt>
      <trkpt lat="48.70682" lon="1.98521">
        <ele>160.68</ele>
        <time>2016-03-24T10:34:55Z</time>
      </trkpt>
      <trkpt lat="48.70688" lon="1.98516">
        <ele>161.16</ele>
        <time>2016-03-24T10:34:36Z</time>
      </trkpt>
      <trkpt lat="48.70691" lon="1.98514">
        <ele>160.68</ele>
        <time>2016-03-24T10:34:32Z</time>
      </trkpt>
      <trkpt lat="48.70695" lon="1.98513">
        <ele>160.2</ele>
        <time>2016-03-24T10:34:29Z</time>
      </trkpt>
      <trkpt lat="48.70696" lon="1.98512">
        <ele>160.2</ele>
        <time>2016-03-24T10:34:28Z</time>
      </trkpt>
      <trkpt lat="48.70697" lon="1.98511">
        <ele>159.72</ele>
        <time>2016-03-24T10:34:27Z</time>
      </trkpt>
      <trkpt lat="48.70698" lon="1.98511">
        <ele>159.72</ele>
        <time>2016-03-24T10:34:26Z</time>
      </trkpt>
      <trkpt lat="48.70707" lon="1.98521">
        <ele>158.75</ele>
        <time>2016-03-24T10:34:17Z</time>
      </trkpt>
      <trkpt lat="48.70708" lon="1.98524">
        <ele>158.27</ele>
        <time>2016-03-24T10:34:15Z</time>
      </trkpt>
      <trkpt lat="48.70709" lon="1.98526">
        <ele>158.27</ele>
        <time>2016-03-24T10:34:14Z</time>
      </trkpt>
      <trkpt lat="48.70718" lon="1.98538">
        <ele>156.83</ele>
        <time>2016-03-24T10:34:04Z</time>
      </trkpt>
      <trkpt lat="48.70722" lon="1.98556">
        <ele>154.91</ele>
        <time>2016-03-24T10:33:54Z</time>
      </trkpt>
      <trkpt lat="48.70723" lon="1.98558">
        <ele>154.91</ele>
        <time>2016-03-24T10:33:53Z</time>
      </trkpt>
      <trkpt lat="48.70729" lon="1.98569">
        <ele>153.95</ele>
        <time>2016-03-24T10:33:45Z</time>
      </trkpt>
      <trkpt lat="48.70741" lon="1.98588">
        <ele>152.03</ele>
        <time>2016-03-24T10:33:29Z</time>
      </trkpt>
      <trkpt lat="48.70757" lon="1.98614">
        <ele>150.58</ele>
        <time>2016-03-24T10:33:10Z</time>
      </trkpt>
      <trkpt lat="48.70758" lon="1.98616">
        <ele>150.58</ele>
        <time>2016-03-24T10:33:09Z</time>
      </trkpt>
      <trkpt lat="48.70759" lon="1.98617">
        <ele>150.58</ele>
        <time>2016-03-24T10:33:08Z</time>
      </trkpt>
      <trkpt lat="48.7076" lon="1.98618">
        <ele>150.58</ele>
        <time>2016-03-24T10:33:07Z</time>
      </trkpt>
      <trkpt lat="48.70761" lon="1.98618">
        <ele>150.58</ele>
        <time>2016-03-24T10:33:06Z</time>
      </trkpt>
      <trkpt lat="48.70762" lon="1.98619">
        <ele>150.1</ele>
        <time>2016-03-24T10:33:05Z</time>
      </trkpt>
      <trkpt lat="48.70767" lon="1.98623">
        <ele>150.1</ele>
        <time>2016-03-24T10:32:57Z</time>
      </trkpt>
      <trkpt lat="48.70768" lon="1.98624">
        <ele>150.1</ele>
        <time>2016-03-24T10:32:56Z</time>
      </trkpt>
      <trkpt lat="48.70772" lon="1.9863">
        <ele>150.1</ele>
        <time>2016-03-24T10:32:45Z</time>
      </trkpt>
      <trkpt lat="48.70781" lon="1.98641">
        <ele>149.14</ele>
        <time>2016-03-24T10:32:27Z</time>
      </trkpt>
      <trkpt lat="48.70781" lon="1.98642">
        <ele>149.14</ele>
        <time>2016-03-24T10:32:26Z</time>
      </trkpt>
      <trkpt lat="48.70787" lon="1.98642">
        <ele>150.1</ele>
        <time>2016-03-24T10:32:12Z</time>
      </trkpt>
      <trkpt lat="48.708" lon="1.98612">
        <ele>151.06</ele>
        <time>2016-03-24T10:31:52Z</time>
      </trkpt>
      <trkpt lat="48.70811" lon="1.98583">
        <ele>151.54</ele>
        <time>2016-03-24T10:31:36Z</time>
      </trkpt>
      <trkpt lat="48.70819" lon="1.98562">
        <ele>152.03</ele>
        <time>2016-03-24T10:31:21Z</time>
      </trkpt>
      <trkpt lat="48.7082" lon="1.98559">
        <ele>152.03</ele>
        <time>2016-03-24T10:31:20Z</time>
      </trkpt>
      <trkpt lat="48.7082" lon="1.98557">
        <ele>152.03</ele>
        <time>2016-03-24T10:31:19Z</time>
      </trkpt>
      <trkpt lat="48.70822" lon="1.98553">
        <ele>152.03</ele>
        <time>2016-03-24T10:31:16Z</time>
      </trkpt>
      <trkpt lat="48.70822" lon="1.98552">
        <ele>152.03</ele>
        <time>2016-03-24T10:31:15Z</time>
      </trkpt>
      <trkpt lat="48.70831" lon="1.98547">
        <ele>152.51</ele>
        <time>2016-03-24T10:30:49Z</time>
      </trkpt>
      <trkpt lat="48.70838" lon="1.98544">
        <ele>151.54</ele>
        <time>2016-03-24T10:30:35Z</time>
      </trkpt>
      <trkpt lat="48.70864" lon="1.98542">
        <ele>150.1</ele>
        <time>2016-03-24T10:30:16Z</time>
      </trkpt>
      <trkpt lat="48.70865" lon="1.98542">
        <ele>150.1</ele>
        <time>2016-03-24T10:30:15Z</time>
      </trkpt>
      <trkpt lat="48.70866" lon="1.98542">
        <ele>149.62</ele>
        <time>2016-03-24T10:30:14Z</time>
      </trkpt>
      <trkpt lat="48.70867" lon="1.98542">
        <ele>149.62</ele>
        <time>2016-03-24T10:30:13Z</time>
      </trkpt>
      <trkpt lat="48.7089" lon="1.98543">
        <ele>148.18</ele>
        <time>2016-03-24T10:29:56Z</time>
      </trkpt>
      <trkpt lat="48.70891" lon="1.98544">
        <ele>148.18</ele>
        <time>2016-03-24T10:29:55Z</time>
      </trkpt>
      <trkpt lat="48.70893" lon="1.98544">
        <ele>148.18</ele>
        <time>2016-03-24T10:29:54Z</time>
      </trkpt>
      <trkpt lat="48.70894" lon="1.98545">
        <ele>148.18</ele>
        <time>2016-03-24T10:29:53Z</time>
      </trkpt>
      <trkpt lat="48.70895" lon="1.98545">
        <ele>147.7</ele>
        <time>2016-03-24T10:29:52Z</time>
      </trkpt>
      <trkpt lat="48.70898" lon="1.98548">
        <ele>147.22</ele>
        <time>2016-03-24T10:29:47Z</time>
      </trkpt>
      <trkpt lat="48.70902" lon="1.9855">
        <ele>147.22</ele>
        <time>2016-03-24T10:29:44Z</time>
      </trkpt>
      <trkpt lat="48.70922" lon="1.98562">
        <ele>145.78</ele>
        <time>2016-03-24T10:29:28Z</time>
      </trkpt>
      <trkpt lat="48.70939" lon="1.98572">
        <ele>144.34</ele>
        <time>2016-03-24T10:29:14Z</time>
      </trkpt>
      <trkpt lat="48.70955" lon="1.98584">
        <ele>143.37</ele>
        <time>2016-03-24T10:29:02Z</time>
      </trkpt>
      <trkpt lat="48.70992" lon="1.98594">
        <ele>142.41</ele>
        <time>2016-03-24T10:28:38Z</time>
      </trkpt>
      <trkpt lat="48.71036" lon="1.98582">
        <ele>140.97</ele>
        <time>2016-03-24T10:28:08Z</time>
      </trkpt>
      <trkpt lat="48.71072" lon="1.98581">
        <ele>140.49</ele>
        <time>2016-03-24T10:27:45Z</time>
      </trkpt>
      <trkpt lat="48.71102" lon="1.98582">
        <ele>139.53</ele>
        <time>2016-03-24T10:27:27Z</time>
      </trkpt>
      <trkpt lat="48.71138" lon="1.98584">
        <ele>139.05</ele>
        <time>2016-03-24T10:27:06Z</time>
      </trkpt>
      <trkpt lat="48.71155" lon="1.98588">
        <ele>139.53</ele>
        <time>2016-03-24T10:26:52Z</time>
      </trkpt>
      <trkpt lat="48.71172" lon="1.9859">
        <ele>139.53</ele>
        <time>2016-03-24T10:26:38Z</time>
      </trkpt>
      <trkpt lat="48.71178" lon="1.98587">
        <ele>139.53</ele>
        <time>2016-03-24T10:26:30Z</time>
      </trkpt>
      <trkpt lat="48.71185" lon="1.9859">
        <ele>139.53</ele>
        <time>2016-03-24T10:26:12Z</time>
      </trkpt>
      <trkpt lat="48.71215" lon="1.98571">
        <ele>140.01</ele>
        <time>2016-03-24T10:25:53Z</time>
      </trkpt>
      <trkpt lat="48.71221" lon="1.98568">
        <ele>140.01</ele>
        <time>2016-03-24T10:25:49Z</time>
      </trkpt>
      <trkpt lat="48.71234" lon="1.98555">
        <ele>140.49</ele>
        <time>2016-03-24T10:25:35Z</time>
      </trkpt>
      <trkpt lat="48.71251" lon="1.98525">
        <ele>141.45</ele>
        <time>2016-03-24T10:25:18Z</time>
      </trkpt>
      <trkpt lat="48.71271" lon="1.98506">
        <ele>142.41</ele>
        <time>2016-03-24T10:25:03Z</time>
      </trkpt>
      <trkpt lat="48.71277" lon="1.98502">
        <ele>142.41</ele>
        <time>2016-03-24T10:24:59Z</time>
      </trkpt>
      <trkpt lat="48.71281" lon="1.98501">
        <ele>142.89</ele>
        <time>2016-03-24T10:24:57Z</time>
      </trkpt>
      <trkpt lat="48.71296" lon="1.98494">
        <ele>143.85</ele>
        <time>2016-03-24T10:24:40Z</time>
      </trkpt>
      <trkpt lat="48.71298" lon="1.98477">
        <ele>144.34</ele>
        <time>2016-03-24T10:24:23Z</time>
      </trkpt>
      <trkpt lat="48.71297" lon="1.98451">
        <ele>143.85</ele>
        <time>2016-03-24T10:23:59Z</time>
      </trkpt>
      <trkpt lat="48.71298" lon="1.98448">
        <ele>143.85</ele>
        <time>2016-03-24T10:23:57Z</time>
      </trkpt>
      <trkpt lat="48.71303" lon="1.98427">
        <ele>143.85</ele>
        <time>2016-03-24T10:23:45Z</time>
      </trkpt>
      <trkpt lat="48.71314" lon="1.98401">
        <ele>144.82</ele>
        <time>2016-03-24T10:23:30Z</time>
      </trkpt>
      <trkpt lat="48.7133" lon="1.98361">
        <ele>146.74</ele>
        <time>2016-03-24T10:23:10Z</time>
      </trkpt>
      <trkpt lat="48.71344" lon="1.98323">
        <ele>147.7</ele>
        <time>2016-03-24T10:22:50Z</time>
      </trkpt>
      <trkpt lat="48.71352" lon="1.98309">
        <ele>147.7</ele>
        <time>2016-03-24T10:22:37Z</time>
      </trkpt>
      <trkpt lat="48.71365" lon="1.98288">
        <ele>148.18</ele>
        <time>2016-03-24T10:22:23Z</time>
      </trkpt>
      <trkpt lat="48.71374" lon="1.98279">
        <ele>147.7</ele>
        <time>2016-03-24T10:22:15Z</time>
      </trkpt>
      <trkpt lat="48.71383" lon="1.9827">
        <ele>147.7</ele>
        <time>2016-03-24T10:22:07Z</time>
      </trkpt>
      <trkpt lat="48.71397" lon="1.98256">
        <ele>148.18</ele>
        <time>2016-03-24T10:21:50Z</time>
      </trkpt>
      <trkpt lat="48.71404" lon="1.98244">
        <ele>148.18</ele>
        <time>2016-03-24T10:21:36Z</time>
      </trkpt>
      <trkpt lat="48.71407" lon="1.98243">
        <ele>148.18</ele>
        <time>2016-03-24T10:21:30Z</time>
      </trkpt>
      <trkpt lat="48.71414" lon="1.98235">
        <ele>150.1</ele>
        <time>2016-03-24T10:21:08Z</time>
      </trkpt>
      <trkpt lat="48.7142" lon="1.98211">
        <ele>152.51</ele>
        <time>2016-03-24T10:20:53Z</time>
      </trkpt>
      <trkpt lat="48.71422" lon="1.98201">
        <ele>152.99</ele>
        <time>2016-03-24T10:20:47Z</time>
      </trkpt>
      <trkpt lat="48.71424" lon="1.98183">
        <ele>154.43</ele>
        <time>2016-03-24T10:20:36Z</time>
      </trkpt>
      <trkpt lat="48.71429" lon="1.98144">
        <ele>155.87</ele>
        <time>2016-03-24T10:20:19Z</time>
      </trkpt>
      <trkpt lat="48.71429" lon="1.98141">
        <ele>156.35</ele>
        <time>2016-03-24T10:20:17Z</time>
      </trkpt>
      <trkpt lat="48.71433" lon="1.98094">
        <ele>158.27</ele>
        <time>2016-03-24T10:19:55Z</time>
      </trkpt>
      <trkpt lat="48.71434" lon="1.9806">
        <ele>157.79</ele>
        <time>2016-03-24T10:19:33Z</time>
      </trkpt>
      <trkpt lat="48.71437" lon="1.98024">
        <ele>156.83</ele>
        <time>2016-03-24T10:19:10Z</time>
      </trkpt>
      <trkpt lat="48.71468" lon="1.97993">
        <ele>155.39</ele>
        <time>2016-03-24T10:18:56Z</time>
      </trkpt>
      <trkpt lat="48.71472" lon="1.97965">
        <ele>152.99</ele>
        <time>2016-03-24T10:18:40Z</time>
      </trkpt>
      <trkpt lat="48.71472" lon="1.97961">
        <ele>152.99</ele>
        <time>2016-03-24T10:18:38Z</time>
      </trkpt>
      <trkpt lat="48.71479" lon="1.97939">
        <ele>152.03</ele>
        <time>2016-03-24T10:18:27Z</time>
      </trkpt>
      <trkpt lat="48.7148" lon="1.97929">
        <ele>151.06</ele>
        <time>2016-03-24T10:18:23Z</time>
      </trkpt>
      <trkpt lat="48.71483" lon="1.97905">
        <ele>149.14</ele>
        <time>2016-03-24T10:18:12Z</time>
      </trkpt>
      <trkpt lat="48.71487" lon="1.97889">
        <ele>148.18</ele>
        <time>2016-03-24T10:18:02Z</time>
      </trkpt>
      <trkpt lat="48.71492" lon="1.97858">
        <ele>148.66</ele>
        <time>2016-03-24T10:17:43Z</time>
      </trkpt>
      <trkpt lat="48.71493" lon="1.97855">
        <ele>148.66</ele>
        <time>2016-03-24T10:17:42Z</time>
      </trkpt>
      <trkpt lat="48.71495" lon="1.9781">
        <ele>147.22</ele>
        <time>2016-03-24T10:17:19Z</time>
      </trkpt>
      <trkpt lat="48.71506" lon="1.97787">
        <ele>146.26</ele>
        <time>2016-03-24T10:17:05Z</time>
      </trkpt>
      <trkpt lat="48.71518" lon="1.97767">
        <ele>145.78</ele>
        <time>2016-03-24T10:16:49Z</time>
      </trkpt>
      <trkpt lat="48.71528" lon="1.97757">
        <ele>145.78</ele>
        <time>2016-03-24T10:16:41Z</time>
      </trkpt>
      <trkpt lat="48.71529" lon="1.97751">
        <ele>145.78</ele>
        <time>2016-03-24T10:16:33Z</time>
      </trkpt>
      <trkpt lat="48.71537" lon="1.97729">
        <ele>146.26</ele>
        <time>2016-03-24T10:16:12Z</time>
      </trkpt>
      <trkpt lat="48.71544" lon="1.97721">
        <ele>146.74</ele>
        <time>2016-03-24T10:15:58Z</time>
      </trkpt>
      <trkpt lat="48.71549" lon="1.97693">
        <ele>148.18</ele>
        <time>2016-03-24T10:15:33Z</time>
      </trkpt>
      <trkpt lat="48.7155" lon="1.97689">
        <ele>148.18</ele>
        <time>2016-03-24T10:15:30Z</time>
      </trkpt>
      <trkpt lat="48.71557" lon="1.97658">
        <ele>147.22</ele>
        <time>2016-03-24T10:15:12Z</time>
      </trkpt>
      <trkpt lat="48.71582" lon="1.97629">
        <ele>144.82</ele>
        <time>2016-03-24T10:15:00Z</time>
      </trkpt>
      <trkpt lat="48.71584" lon="1.97612">
        <ele>143.85</ele>
        <time>2016-03-24T10:14:52Z</time>
      </trkpt>
      <trkpt lat="48.71594" lon="1.97591">
        <ele>142.89</ele>
        <time>2016-03-24T10:14:38Z</time>
      </trkpt>
      <trkpt lat="48.71606" lon="1.97569">
        <ele>142.41</ele>
        <time>2016-03-24T10:14:22Z</time>
      </trkpt>
      <trkpt lat="48.71622" lon="1.97545">
        <ele>144.34</ele>
        <time>2016-03-24T10:14:03Z</time>
      </trkpt>
      <trkpt lat="48.71623" lon="1.97543">
        <ele>144.34</ele>
        <time>2016-03-24T10:14:02Z</time>
      </trkpt>
      <trkpt lat="48.71637" lon="1.97517">
        <ele>143.37</ele>
        <time>2016-03-24T10:13:41Z</time>
      </trkpt>
      <trkpt lat="48.71643" lon="1.97501">
        <ele>140.49</ele>
        <time>2016-03-24T10:13:26Z</time>
      </trkpt>
      <trkpt lat="48.71668" lon="1.97471">
        <ele>140.97</ele>
        <time>2016-03-24T10:13:05Z</time>
      </trkpt>
      <trkpt lat="48.71683" lon="1.97447">
        <ele>142.41</ele>
        <time>2016-03-24T10:12:45Z</time>
      </trkpt>
      <trkpt lat="48.71687" lon="1.97442">
        <ele>142.41</ele>
        <time>2016-03-24T10:12:41Z</time>
      </trkpt>
      <trkpt lat="48.71694" lon="1.97434">
        <ele>142.41</ele>
        <time>2016-03-24T10:12:34Z</time>
      </trkpt>
      <trkpt lat="48.71708" lon="1.97421">
        <ele>143.85</ele>
        <time>2016-03-24T10:12:12Z</time>
      </trkpt>
      <trkpt lat="48.71716" lon="1.97404">
        <ele>143.37</ele>
        <time>2016-03-24T10:11:54Z</time>
      </trkpt>
      <trkpt lat="48.71719" lon="1.97392">
        <ele>141.45</ele>
        <time>2016-03-24T10:11:29Z</time>
      </trkpt>
      <trkpt lat="48.71721" lon="1.97366">
        <ele>139.05</ele>
        <time>2016-03-24T10:11:12Z</time>
      </trkpt>
      <trkpt lat="48.71725" lon="1.9735">
        <ele>138.57</ele>
        <time>2016-03-24T10:10:59Z</time>
      </trkpt>
      <trkpt lat="48.71733" lon="1.97314">
        <ele>137.61</ele>
        <time>2016-03-24T10:10:39Z</time>
      </trkpt>
      <trkpt lat="48.71737" lon="1.97288">
        <ele>137.13</ele>
        <time>2016-03-24T10:10:21Z</time>
      </trkpt>
      <trkpt lat="48.71738" lon="1.9727">
        <ele>135.68</ele>
        <time>2016-03-24T10:10:06Z</time>
      </trkpt>
      <trkpt lat="48.7174" lon="1.97261">
        <ele>135.68</ele>
        <time>2016-03-24T10:10:02Z</time>
      </trkpt>
      <trkpt lat="48.71742" lon="1.97251">
        <ele>135.2</ele>
        <time>2016-03-24T10:09:58Z</time>
      </trkpt>
      <trkpt lat="48.71744" lon="1.97236">
        <ele>135.2</ele>
        <time>2016-03-24T10:09:52Z</time>
      </trkpt>
      <trkpt lat="48.71746" lon="1.97228">
        <ele>135.2</ele>
        <time>2016-03-24T10:09:47Z</time>
      </trkpt>
      <trkpt lat="48.71746" lon="1.97218">
        <ele>134.72</ele>
        <time>2016-03-24T10:09:42Z</time>
      </trkpt>
      <trkpt lat="48.71748" lon="1.9721">
        <ele>134.72</ele>
        <time>2016-03-24T10:09:37Z</time>
      </trkpt>
      <trkpt lat="48.71755" lon="1.97192">
        <ele>132.8</ele>
        <time>2016-03-24T10:09:27Z</time>
      </trkpt>
      <trkpt lat="48.71759" lon="1.97179">
        <ele>132.32</ele>
        <time>2016-03-24T10:09:20Z</time>
      </trkpt>
      <trkpt lat="48.71761" lon="1.97172">
        <ele>132.32</ele>
        <time>2016-03-24T10:09:16Z</time>
      </trkpt>
      <trkpt lat="48.7177" lon="1.97129">
        <ele>131.36</ele>
        <time>2016-03-24T10:08:53Z</time>
      </trkpt>
      <trkpt lat="48.71772" lon="1.97122">
        <ele>131.36</ele>
        <time>2016-03-24T10:08:47Z</time>
      </trkpt>
      <trkpt lat="48.71775" lon="1.97097">
        <ele>130.88</ele>
        <time>2016-03-24T10:08:31Z</time>
      </trkpt>
      <trkpt lat="48.71778" lon="1.97091">
        <ele>130.4</ele>
        <time>2016-03-24T10:08:27Z</time>
      </trkpt>
      <trkpt lat="48.71782" lon="1.97079">
        <ele>129.92</ele>
        <time>2016-03-24T10:08:21Z</time>
      </trkpt>
      <trkpt lat="48.71791" lon="1.97041">
        <ele>127.03</ele>
        <time>2016-03-24T10:07:58Z</time>
      </trkpt>
      <trkpt lat="48.71791" lon="1.97039">
        <ele>126.55</ele>
        <time>2016-03-24T10:07:56Z</time>
      </trkpt>
      <trkpt lat="48.71791" lon="1.97032">
        <ele>126.07</ele>
        <time>2016-03-24T10:07:46Z</time>
      </trkpt>
      <trkpt lat="48.71804" lon="1.97038">
        <ele>125.11</ele>
        <time>2016-03-24T10:07:16Z</time>
      </trkpt>
      <trkpt lat="48.71813" lon="1.97045">
        <ele>126.07</ele>
        <time>2016-03-24T10:07:00Z</time>
      </trkpt>
      <trkpt lat="48.71823" lon="1.97058">
        <ele>126.07</ele>
        <time>2016-03-24T10:06:41Z</time>
      </trkpt>
      <trkpt lat="48.71825" lon="1.97059">
        <ele>126.07</ele>
        <time>2016-03-24T10:06:38Z</time>
      </trkpt>
      <trkpt lat="48.71828" lon="1.9706">
        <ele>126.07</ele>
        <time>2016-03-24T10:06:34Z</time>
      </trkpt>
      <trkpt lat="48.71829" lon="1.97061">
        <ele>126.55</ele>
        <time>2016-03-24T10:06:33Z</time>
      </trkpt>
      <trkpt lat="48.71854" lon="1.97078">
        <ele>128.95</ele>
        <time>2016-03-24T10:06:13Z</time>
      </trkpt>
      <trkpt lat="48.71861" lon="1.97083">
        <ele>128.95</ele>
        <time>2016-03-24T10:06:08Z</time>
      </trkpt>
      <trkpt lat="48.71882" lon="1.97097">
        <ele>130.88</ele>
        <time>2016-03-24T10:05:49Z</time>
      </trkpt>
      <trkpt lat="48.71896" lon="1.97097">
        <ele>134.24</ele>
        <time>2016-03-24T10:05:32Z</time>
      </trkpt>
      <trkpt lat="48.71916" lon="1.97101">
        <ele>137.61</ele>
        <time>2016-03-24T10:05:14Z</time>
      </trkpt>
      <trkpt lat="48.71918" lon="1.97102">
        <ele>137.61</ele>
        <time>2016-03-24T10:05:11Z</time>
      </trkpt>
      <trkpt lat="48.71929" lon="1.97108">
        <ele>138.57</ele>
        <time>2016-03-24T10:04:52Z</time>
      </trkpt>
      <trkpt lat="48.71927" lon="1.97098">
        <ele>138.57</ele>
        <time>2016-03-24T10:04:30Z</time>
      </trkpt>
      <trkpt lat="48.71938" lon="1.97083">
        <ele>138.57</ele>
        <time>2016-03-24T10:04:11Z</time>
      </trkpt>
      <trkpt lat="48.71946" lon="1.97078">
        <ele>138.57</ele>
        <time>2016-03-24T10:04:05Z</time>
      </trkpt>
      <trkpt lat="48.71961" lon="1.97064">
        <ele>140.49</ele>
        <time>2016-03-24T10:03:42Z</time>
      </trkpt>
      <trkpt lat="48.71976" lon="1.9707">
        <ele>142.41</ele>
        <time>2016-03-24T10:03:21Z</time>
      </trkpt>
      <trkpt lat="48.72001" lon="1.97098">
        <ele>144.34</ele>
        <time>2016-03-24T10:02:58Z</time>
      </trkpt>
      <trkpt lat="48.72015" lon="1.97113">
        <ele>144.34</ele>
        <time>2016-03-24T10:02:42Z</time>
      </trkpt>
      <trkpt lat="48.72034" lon="1.97131">
        <ele>143.85</ele>
        <time>2016-03-24T10:02:27Z</time>
      </trkpt>
      <trkpt lat="48.72039" lon="1.97133">
        <ele>143.85</ele>
        <time>2016-03-24T10:02:24Z</time>
      </trkpt>
      <trkpt lat="48.72051" lon="1.97145">
        <ele>143.85</ele>
        <time>2016-03-24T10:02:14Z</time>
      </trkpt>
      <trkpt lat="48.72059" lon="1.97163">
        <ele>143.85</ele>
        <time>2016-03-24T10:02:05Z</time>
      </trkpt>
      <trkpt lat="48.72061" lon="1.97168">
        <ele>143.85</ele>
        <time>2016-03-24T10:02:00Z</time>
      </trkpt>
      <trkpt lat="48.72064" lon="1.97172">
        <ele>143.85</ele>
        <time>2016-03-24T10:01:55Z</time>
      </trkpt>
      <trkpt lat="48.72086" lon="1.97196">
        <ele>143.85</ele>
        <time>2016-03-24T10:01:34Z</time>
      </trkpt>
      <trkpt lat="48.7209" lon="1.97203">
        <ele>143.85</ele>
        <time>2016-03-24T10:01:30Z</time>
      </trkpt>
      <trkpt lat="48.72092" lon="1.97204">
        <ele>143.85</ele>
        <time>2016-03-24T10:01:28Z</time>
      </trkpt>
      <trkpt lat="48.72118" lon="1.97234">
        <ele>143.85</ele>
        <time>2016-03-24T10:01:04Z</time>
      </trkpt>
      <trkpt lat="48.72145" lon="1.97277">
        <ele>145.3</ele>
        <time>2016-03-24T10:00:39Z</time>
      </trkpt>
      <trkpt lat="48.72148" lon="1.97287">
        <ele>145.3</ele>
        <time>2016-03-24T10:00:34Z</time>
      </trkpt>
      <trkpt lat="48.72152" lon="1.97296">
        <ele>145.3</ele>
        <time>2016-03-24T10:00:29Z</time>
      </trkpt>
      <trkpt lat="48.72163" lon="1.97312">
        <ele>143.85</ele>
        <time>2016-03-24T10:00:15Z</time>
      </trkpt>
      <trkpt lat="48.72181" lon="1.97319">
        <ele>140.97</ele>
        <time>2016-03-24T09:59:55Z</time>
      </trkpt>
      <trkpt lat="48.72183" lon="1.97322">
        <ele>140.97</ele>
        <time>2016-03-24T09:59:53Z</time>
      </trkpt>
      <trkpt lat="48.72189" lon="1.97327">
        <ele>139.53</ele>
        <time>2016-03-24T09:59:38Z</time>
      </trkpt>
      <trkpt lat="48.72191" lon="1.97341">
        <ele>139.05</ele>
        <time>2016-03-24T09:59:11Z</time>
      </trkpt>
      <trkpt lat="48.72191" lon="1.97344">
        <ele>139.05</ele>
        <time>2016-03-24T09:59:06Z</time>
      </trkpt>
      <trkpt lat="48.72207" lon="1.97352">
        <ele>140.97</ele>
        <time>2016-03-24T09:58:51Z</time>
      </trkpt>
      <trkpt lat="48.72209" lon="1.97334">
        <ele>143.37</ele>
        <time>2016-03-24T09:58:32Z</time>
      </trkpt>
      <trkpt lat="48.72214" lon="1.9734">
        <ele>143.37</ele>
        <time>2016-03-24T09:58:25Z</time>
      </trkpt>
      <trkpt lat="48.72227" lon="1.97337">
        <ele>143.37</ele>
        <time>2016-03-24T09:58:06Z</time>
      </trkpt>
      <trkpt lat="48.7223" lon="1.97333">
        <ele>144.34</ele>
        <time>2016-03-24T09:58:01Z</time>
      </trkpt>
      <trkpt lat="48.72239" lon="1.97319">
        <ele>144.82</ele>
        <time>2016-03-24T09:57:48Z</time>
      </trkpt>
      <trkpt lat="48.72252" lon="1.97303">
        <ele>147.22</ele>
        <time>2016-03-24T09:57:31Z</time>
      </trkpt>
      <trkpt lat="48.72263" lon="1.97299">
        <ele>149.14</ele>
        <time>2016-03-24T09:57:20Z</time>
      </trkpt>
      <trkpt lat="48.72278" lon="1.97286">
        <ele>151.06</ele>
        <time>2016-03-24T09:57:07Z</time>
      </trkpt>
      <trkpt lat="48.72283" lon="1.97278">
        <ele>152.03</ele>
        <time>2016-03-24T09:57:01Z</time>
      </trkpt>
      <trkpt lat="48.72288" lon="1.97268">
        <ele>153.47</ele>
        <time>2016-03-24T09:56:52Z</time>
      </trkpt>
      <trkpt lat="48.72298" lon="1.97257">
        <ele>155.39</ele>
        <time>2016-03-24T09:56:42Z</time>
      </trkpt>
      <trkpt lat="48.72301" lon="1.97249">
        <ele>156.35</ele>
        <time>2016-03-24T09:56:36Z</time>
      </trkpt>
      <trkpt lat="48.72309" lon="1.97244">
        <ele>157.31</ele>
        <time>2016-03-24T09:56:30Z</time>
      </trkpt>
      <trkpt lat="48.72314" lon="1.97241">
        <ele>158.27</ele>
        <time>2016-03-24T09:56:26Z</time>
      </trkpt>
      <trkpt lat="48.72335" lon="1.97231">
        <ele>161.16</ele>
        <time>2016-03-24T09:56:13Z</time>
      </trkpt>
      <trkpt lat="48.72337" lon="1.97231">
        <ele>161.64</ele>
        <time>2016-03-24T09:56:12Z</time>
      </trkpt>
      <trkpt lat="48.72339" lon="1.9723">
        <ele>161.64</ele>
        <time>2016-03-24T09:56:11Z</time>
      </trkpt>
      <trkpt lat="48.7234" lon="1.97229">
        <ele>161.64</ele>
        <time>2016-03-24T09:56:10Z</time>
      </trkpt>
      <trkpt lat="48.72343" lon="1.97229">
        <ele>162.12</ele>
        <time>2016-03-24T09:56:09Z</time>
      </trkpt>
      <trkpt lat="48.72344" lon="1.97229">
        <ele>162.12</ele>
        <time>2016-03-24T09:56:08Z</time>
      </trkpt>
      <trkpt lat="48.72355" lon="1.97221">
        <ele>164.52</ele>
        <time>2016-03-24T09:55:58Z</time>
      </trkpt>
      <trkpt lat="48.7237" lon="1.97208">
        <ele>166.45</ele>
        <time>2016-03-24T09:55:45Z</time>
      </trkpt>
      <trkpt lat="48.72371" lon="1.97207">
        <ele>166.93</ele>
        <time>2016-03-24T09:55:44Z</time>
      </trkpt>
      <trkpt lat="48.72376" lon="1.97202">
        <ele>167.89</ele>
        <time>2016-03-24T09:55:39Z</time>
      </trkpt>
      <trkpt lat="48.72396" lon="1.97192">
        <ele>170.77</ele>
        <time>2016-03-24T09:55:26Z</time>
      </trkpt>
      <trkpt lat="48.72413" lon="1.97185">
        <ele>172.69</ele>
        <time>2016-03-24T09:55:13Z</time>
      </trkpt>
      <trkpt lat="48.72432" lon="1.97178">
        <ele>173.66</ele>
        <time>2016-03-24T09:55:01Z</time>
      </trkpt>
      <trkpt lat="48.72451" lon="1.97171">
        <ele>175.1</ele>
        <time>2016-03-24T09:54:46Z</time>
      </trkpt>
      <trkpt lat="48.72476" lon="1.97164">
        <ele>177.98</ele>
        <time>2016-03-24T09:54:30Z</time>
      </trkpt>
      <trkpt lat="48.72482" lon="1.97162">
        <ele>178.94</ele>
        <time>2016-03-24T09:54:25Z</time>
      </trkpt>
      <trkpt lat="48.72486" lon="1.9716">
        <ele>178.94</ele>
        <time>2016-03-24T09:54:22Z</time>
      </trkpt>
      <trkpt lat="48.72508" lon="1.97156">
        <ele>179.9</ele>
        <time>2016-03-24T09:54:06Z</time>
      </trkpt>
      <trkpt lat="48.72512" lon="1.97149">
        <ele>179.9</ele>
        <time>2016-03-24T09:54:00Z</time>
      </trkpt>
      <trkpt lat="48.72513" lon="1.97137">
        <ele>179.9</ele>
        <time>2016-03-24T09:53:55Z</time>
      </trkpt>
      <trkpt lat="48.72515" lon="1.97118">
        <ele>179.9</ele>
        <time>2016-03-24T09:53:46Z</time>
      </trkpt>
      <trkpt lat="48.72516" lon="1.97084">
        <ele>179.42</ele>
        <time>2016-03-24T09:53:31Z</time>
      </trkpt>
      <trkpt lat="48.72519" lon="1.97043">
        <ele>178.46</ele>
        <time>2016-03-24T09:53:13Z</time>
      </trkpt>
      <trkpt lat="48.72519" lon="1.97005">
        <ele>178.94</ele>
        <time>2016-03-24T09:52:57Z</time>
      </trkpt>
      <trkpt lat="48.72525" lon="1.96959">
        <ele>179.9</ele>
        <time>2016-03-24T09:52:37Z</time>
      </trkpt>
      <trkpt lat="48.72526" lon="1.96919">
        <ele>180.38</ele>
        <time>2016-03-24T09:52:18Z</time>
      </trkpt>
      <trkpt lat="48.72525" lon="1.96914">
        <ele>180.38</ele>
        <time>2016-03-24T09:52:14Z</time>
      </trkpt>
      <trkpt lat="48.72526" lon="1.96913">
        <ele>180.38</ele>
        <time>2016-03-24T09:52:13Z</time>
      </trkpt>
      <trkpt lat="48.72518" lon="1.96913">
        <ele>180.38</ele>
        <time>2016-03-24T09:51:54Z</time>
      </trkpt>
      <trkpt lat="48.72511" lon="1.96882">
        <ele>180.87</ele>
        <time>2016-03-24T09:51:39Z</time>
      </trkpt>
      <trkpt lat="48.72497" lon="1.96848">
        <ele>181.35</ele>
        <time>2016-03-24T09:51:23Z</time>
      </trkpt>
      <trkpt lat="48.72492" lon="1.96838">
        <ele>181.35</ele>
        <time>2016-03-24T09:51:18Z</time>
      </trkpt>
      <trkpt lat="48.72481" lon="1.96814">
        <ele>181.83</ele>
        <time>2016-03-24T09:51:06Z</time>
      </trkpt>
      <trkpt lat="48.72463" lon="1.96784">
        <ele>181.83</ele>
        <time>2016-03-24T09:50:49Z</time>
      </trkpt>
      <trkpt lat="48.7245" lon="1.96734">
        <ele>182.31</ele>
        <time>2016-03-24T09:50:27Z</time>
      </trkpt>
      <trkpt lat="48.72445" lon="1.96712">
        <ele>181.83</ele>
        <time>2016-03-24T09:50:10Z</time>
      </trkpt>
      <trkpt lat="48.72442" lon="1.96702">
        <ele>181.35</ele>
        <time>2016-03-24T09:49:43Z</time>
      </trkpt>
      <trkpt lat="48.72435" lon="1.96683">
        <ele>181.35</ele>
        <time>2016-03-24T09:49:34Z</time>
      </trkpt>
      <trkpt lat="48.72427" lon="1.96659">
        <ele>180.87</ele>
        <time>2016-03-24T09:49:19Z</time>
      </trkpt>
      <trkpt lat="48.72423" lon="1.96647">
        <ele>180.87</ele>
        <time>2016-03-24T09:49:13Z</time>
      </trkpt>
      <trkpt lat="48.72412" lon="1.96623">
        <ele>180.87</ele>
        <time>2016-03-24T09:49:00Z</time>
      </trkpt>
      <trkpt lat="48.724" lon="1.96598">
        <ele>180.38</ele>
        <time>2016-03-24T09:48:46Z</time>
      </trkpt>
      <trkpt lat="48.72392" lon="1.9658">
        <ele>180.38</ele>
        <time>2016-03-24T09:48:37Z</time>
      </trkpt>
      <trkpt lat="48.72381" lon="1.96544">
        <ele>179.9</ele>
        <time>2016-03-24T09:48:20Z</time>
      </trkpt>
      <trkpt lat="48.72378" lon="1.96539">
        <ele>179.9</ele>
        <time>2016-03-24T09:48:17Z</time>
      </trkpt>
      <trkpt lat="48.72373" lon="1.96524">
        <ele>179.9</ele>
        <time>2016-03-24T09:48:11Z</time>
      </trkpt>
      <trkpt lat="48.72362" lon="1.96499">
        <ele>179.42</ele>
        <time>2016-03-24T09:47:58Z</time>
      </trkpt>
      <trkpt lat="48.72359" lon="1.96488">
        <ele>179.42</ele>
        <time>2016-03-24T09:47:52Z</time>
      </trkpt>
      <trkpt lat="48.72343" lon="1.96447">
        <ele>178.94</ele>
        <time>2016-03-24T09:47:30Z</time>
      </trkpt>
      <trkpt lat="48.72329" lon="1.96404">
        <ele>178.94</ele>
        <time>2016-03-24T09:47:08Z</time>
      </trkpt>
      <trkpt lat="48.72325" lon="1.96393">
        <ele>178.94</ele>
        <time>2016-03-24T09:47:02Z</time>
      </trkpt>
      <trkpt lat="48.72315" lon="1.96371">
        <ele>178.46</ele>
        <time>2016-03-24T09:46:49Z</time>
      </trkpt>
      <trkpt lat="48.72313" lon="1.96368">
        <ele>178.46</ele>
        <time>2016-03-24T09:46:47Z</time>
      </trkpt>
      <trkpt lat="48.72304" lon="1.96339">
        <ele>178.46</ele>
        <time>2016-03-24T09:46:32Z</time>
      </trkpt>
      <trkpt lat="48.72295" lon="1.96314">
        <ele>177.98</ele>
        <time>2016-03-24T09:46:18Z</time>
      </trkpt>
      <trkpt lat="48.72292" lon="1.96308">
        <ele>177.98</ele>
        <time>2016-03-24T09:46:14Z</time>
      </trkpt>
      <trkpt lat="48.72288" lon="1.96297">
        <ele>177.98</ele>
        <time>2016-03-24T09:46:08Z</time>
      </trkpt>
      <trkpt lat="48.72286" lon="1.96292">
        <ele>177.98</ele>
        <time>2016-03-24T09:46:06Z</time>
      </trkpt>
      <trkpt lat="48.72286" lon="1.96278">
        <ele>177.5</ele>
        <time>2016-03-24T09:46:01Z</time>
      </trkpt>
      <trkpt lat="48.72282" lon="1.96262">
        <ele>177.02</ele>
        <time>2016-03-24T09:45:52Z</time>
      </trkpt>
      <trkpt lat="48.72276" lon="1.96237">
        <ele>176.06</ele>
        <time>2016-03-24T09:45:37Z</time>
      </trkpt>
      <trkpt lat="48.72268" lon="1.96206">
        <ele>175.1</ele>
        <time>2016-03-24T09:45:22Z</time>
      </trkpt>
      <trkpt lat="48.72267" lon="1.96202">
        <ele>174.62</ele>
        <time>2016-03-24T09:45:19Z</time>
      </trkpt>
      <trkpt lat="48.72254" lon="1.96177">
        <ele>172.69</ele>
        <time>2016-03-24T09:44:59Z</time>
      </trkpt>
      <trkpt lat="48.72251" lon="1.96171">
        <ele>172.69</ele>
        <time>2016-03-24T09:44:20Z</time>
      </trkpt>
      <trkpt lat="48.72244" lon="1.96174">
        <ele>171.73</ele>
        <time>2016-03-24T09:44:11Z</time>
      </trkpt>
      <trkpt lat="48.72221" lon="1.96179">
        <ele>170.29</ele>
        <time>2016-03-24T09:43:55Z</time>
      </trkpt>
      <trkpt lat="48.72215" lon="1.96178">
        <ele>169.81</ele>
        <time>2016-03-24T09:43:52Z</time>
      </trkpt>
      <trkpt lat="48.72197" lon="1.96179">
        <ele>169.33</ele>
        <time>2016-03-24T09:43:42Z</time>
      </trkpt>
      <trkpt lat="48.72179" lon="1.96183">
        <ele>168.37</ele>
        <time>2016-03-24T09:43:29Z</time>
      </trkpt>
      <trkpt lat="48.72155" lon="1.96201">
        <ele>165.96</ele>
        <time>2016-03-24T09:43:12Z</time>
      </trkpt>
      <trkpt lat="48.72133" lon="1.96218">
        <ele>163.08</ele>
        <time>2016-03-24T09:42:54Z</time>
      </trkpt>
      <trkpt lat="48.72107" lon="1.96262">
        <ele>162.12</ele>
        <time>2016-03-24T09:42:31Z</time>
      </trkpt>
      <trkpt lat="48.72092" lon="1.96302">
        <ele>161.64</ele>
        <time>2016-03-24T09:42:09Z</time>
      </trkpt>
      <trkpt lat="48.72078" lon="1.96331">
        <ele>163.08</ele>
        <time>2016-03-24T09:41:52Z</time>
      </trkpt>
      <trkpt lat="48.72067" lon="1.96345">
        <ele>165</ele>
        <time>2016-03-24T09:41:31Z</time>
      </trkpt>
      <trkpt lat="48.72069" lon="1.9634">
        <ele>165.96</ele>
        <time>2016-03-24T09:40:59Z</time>
      </trkpt>
      <trkpt lat="48.72078" lon="1.9634">
        <ele>165.48</ele>
        <time>2016-03-24T09:40:52Z</time>
      </trkpt>
      <trkpt lat="48.72082" lon="1.96341">
        <ele>165.48</ele>
        <time>2016-03-24T09:40:49Z</time>
      </trkpt>
      <trkpt lat="48.72084" lon="1.96327">
        <ele>163.56</ele>
        <time>2016-03-24T09:40:33Z</time>
      </trkpt>
      <trkpt lat="48.7209" lon="1.96311">
        <ele>162.12</ele>
        <time>2016-03-24T09:40:21Z</time>
      </trkpt>
      <trkpt lat="48.72098" lon="1.96291">
        <ele>162.6</ele>
        <time>2016-03-24T09:40:00Z</time>
      </trkpt>
      <trkpt lat="48.72105" lon="1.96275">
        <ele>162.6</ele>
        <time>2016-03-24T09:39:28Z</time>
      </trkpt>
      <trkpt lat="48.72104" lon="1.96264">
        <ele>162.12</ele>
        <time>2016-03-24T09:39:17Z</time>
      </trkpt>
      <trkpt lat="48.72102" lon="1.96259">
        <ele>162.12</ele>
        <time>2016-03-24T09:39:15Z</time>
      </trkpt>
      <trkpt lat="48.72117" lon="1.96234">
        <ele>162.12</ele>
        <time>2016-03-24T09:38:54Z</time>
      </trkpt>
      <trkpt lat="48.72115" lon="1.96232">
        <ele>162.6</ele>
        <time>2016-03-24T09:38:43Z</time>
      </trkpt>
      <trkpt lat="48.72124" lon="1.96226">
        <ele>162.12</ele>
        <time>2016-03-24T09:38:20Z</time>
      </trkpt>
      <trkpt lat="48.72125" lon="1.96222">
        <ele>161.64</ele>
        <time>2016-03-24T09:38:14Z</time>
      </trkpt>
      <trkpt lat="48.72125" lon="1.96226">
        <ele>162.12</ele>
        <time>2016-03-24T09:37:59Z</time>
      </trkpt>
      <trkpt lat="48.72132" lon="1.96236">
        <ele>162.12</ele>
        <time>2016-03-24T09:37:39Z</time>
      </trkpt>
      <trkpt lat="48.72133" lon="1.9624">
        <ele>162.6</ele>
        <time>2016-03-24T09:37:23Z</time>
      </trkpt>
      <trkpt lat="48.72117" lon="1.96229">
        <ele>162.6</ele>
        <time>2016-03-24T09:36:54Z</time>
      </trkpt>
      <trkpt lat="48.72116" lon="1.96225">
        <ele>162.6</ele>
        <time>2016-03-24T09:36:51Z</time>
      </trkpt>
      <trkpt lat="48.7211" lon="1.96216">
        <ele>162.6</ele>
        <time>2016-03-24T09:36:25Z</time>
      </trkpt>
      <trkpt lat="48.7211" lon="1.96213">
        <ele>162.6</ele>
        <time>2016-03-24T09:36:23Z</time>
      </trkpt>
      <trkpt lat="48.72109" lon="1.96211">
        <ele>162.6</ele>
        <time>2016-03-24T09:36:21Z</time>
      </trkpt>
      <trkpt lat="48.72109" lon="1.96207">
        <ele>163.08</ele>
        <time>2016-03-24T09:36:17Z</time>
      </trkpt>
      <trkpt lat="48.72098" lon="1.96192">
        <ele>164.52</ele>
        <time>2016-03-24T09:36:02Z</time>
      </trkpt>
      <trkpt lat="48.72097" lon="1.96189">
        <ele>164.52</ele>
        <time>2016-03-24T09:36:00Z</time>
      </trkpt>
      <trkpt lat="48.7209" lon="1.96171">
        <ele>164.52</ele>
        <time>2016-03-24T09:35:45Z</time>
      </trkpt>
      <trkpt lat="48.72086" lon="1.96166">
        <ele>164.52</ele>
        <time>2016-03-24T09:35:39Z</time>
      </trkpt>
      <trkpt lat="48.72085" lon="1.96165">
        <ele>164.52</ele>
        <time>2016-03-24T09:35:38Z</time>
      </trkpt>
      <trkpt lat="48.72085" lon="1.96148">
        <ele>161.16</ele>
        <time>2016-03-24T09:35:25Z</time>
      </trkpt>
      <trkpt lat="48.72087" lon="1.96145">
        <ele>160.68</ele>
        <time>2016-03-24T09:35:22Z</time>
      </trkpt>
      <trkpt lat="48.72094" lon="1.96131">
        <ele>158.75</ele>
        <time>2016-03-24T09:34:57Z</time>
      </trkpt>
      <trkpt lat="48.72097" lon="1.96128">
        <ele>158.75</ele>
        <time>2016-03-24T09:34:23Z</time>
      </trkpt>
      <trkpt lat="48.72097" lon="1.96138">
        <ele>157.79</ele>
        <time>2016-03-24T09:33:52Z</time>
      </trkpt>
      <trkpt lat="48.72087" lon="1.96132">
        <ele>154.43</ele>
        <time>2016-03-24T09:33:41Z</time>
      </trkpt>
      <trkpt lat="48.72081" lon="1.9613">
        <ele>152.99</ele>
        <time>2016-03-24T09:33:36Z</time>
      </trkpt>
      <trkpt lat="48.72072" lon="1.96122">
        <ele>149.62</ele>
        <time>2016-03-24T09:33:23Z</time>
      </trkpt>
      <trkpt lat="48.72065" lon="1.9611">
        <ele>146.74</ele>
        <time>2016-03-24T09:33:07Z</time>
      </trkpt>
      <trkpt lat="48.72059" lon="1.96108">
        <ele>143.37</ele>
        <time>2016-03-24T09:32:59Z</time>
      </trkpt>
      <trkpt lat="48.72047" lon="1.96096">
        <ele>140.01</ele>
        <time>2016-03-24T09:32:36Z</time>
      </trkpt>
      <trkpt lat="48.72034" lon="1.96096">
        <ele>137.13</ele>
        <time>2016-03-24T09:32:16Z</time>
      </trkpt>
      <trkpt lat="48.72021" lon="1.96095">
        <ele>136.16</ele>
        <time>2016-03-24T09:31:54Z</time>
      </trkpt>
      <trkpt lat="48.72014" lon="1.96094">
        <ele>133.76</ele>
        <time>2016-03-24T09:31:35Z</time>
      </trkpt>
      <trkpt lat="48.72009" lon="1.96091">
        <ele>131.84</ele>
        <time>2016-03-24T09:31:27Z</time>
      </trkpt>
      <trkpt lat="48.71995" lon="1.96078">
        <ele>128.47</ele>
        <time>2016-03-24T09:31:11Z</time>
      </trkpt>
      <trkpt lat="48.71989" lon="1.96079">
        <ele>127.03</ele>
        <time>2016-03-24T09:31:01Z</time>
      </trkpt>
      <trkpt lat="48.71979" lon="1.96072">
        <ele>124.15</ele>
        <time>2016-03-24T09:30:47Z</time>
      </trkpt>
      <trkpt lat="48.71978" lon="1.9605">
        <ele>121.74</ele>
        <time>2016-03-24T09:30:31Z</time>
      </trkpt>
      <trkpt lat="48.71978" lon="1.96043">
        <ele>121.26</ele>
        <time>2016-03-24T09:30:26Z</time>
      </trkpt>
      <trkpt lat="48.71972" lon="1.96037">
        <ele>120.78</ele>
        <time>2016-03-24T09:30:05Z</time>
      </trkpt>
      <trkpt lat="48.71967" lon="1.96042">
        <ele>120.78</ele>
        <time>2016-03-24T09:29:38Z</time>
      </trkpt>
      <trkpt lat="48.71965" lon="1.96044">
        <ele>120.78</ele>
        <time>2016-03-24T09:29:31Z</time>
      </trkpt>
      <trkpt lat="48.71976" lon="1.96054">
        <ele>120.78</ele>
        <time>2016-03-24T09:29:02Z</time>
      </trkpt>
      <trkpt lat="48.71978" lon="1.96063">
        <ele>120.78</ele>
        <time>2016-03-24T09:28:59Z</time>
      </trkpt>
      <trkpt lat="48.71972" lon="1.96105">
        <ele>119.82</ele>
        <time>2016-03-24T09:28:38Z</time>
      </trkpt>
      <trkpt lat="48.71963" lon="1.9614">
        <ele>118.86</ele>
        <time>2016-03-24T09:28:15Z</time>
      </trkpt>
      <trkpt lat="48.71954" lon="1.96147">
        <ele>117.9</ele>
        <time>2016-03-24T09:28:04Z</time>
      </trkpt>
      <trkpt lat="48.71945" lon="1.96139">
        <ele>117.9</ele>
        <time>2016-03-24T09:27:54Z</time>
      </trkpt>
      <trkpt lat="48.71943" lon="1.96139">
        <ele>117.9</ele>
        <time>2016-03-24T09:27:50Z</time>
      </trkpt>
      <trkpt lat="48.71931" lon="1.96101">
        <ele>116.46</ele>
        <time>2016-03-24T09:27:27Z</time>
      </trkpt>
      <trkpt lat="48.71928" lon="1.96094">
        <ele>115.98</ele>
        <time>2016-03-24T09:27:22Z</time>
      </trkpt>
      <trkpt lat="48.71925" lon="1.9609">
        <ele>115.98</ele>
        <time>2016-03-24T09:27:18Z</time>
      </trkpt>
      <trkpt lat="48.71902" lon="1.96103">
        <ele>115.5</ele>
        <time>2016-03-24T09:27:02Z</time>
      </trkpt>
      <trkpt lat="48.71893" lon="1.96109">
        <ele>115.5</ele>
        <time>2016-03-24T09:26:51Z</time>
      </trkpt>
      <trkpt lat="48.71906" lon="1.96135">
        <ele>115.01</ele>
        <time>2016-03-24T09:26:40Z</time>
      </trkpt>
      <trkpt lat="48.71898" lon="1.96165">
        <ele>115.01</ele>
        <time>2016-03-24T09:26:25Z</time>
      </trkpt>
      <trkpt lat="48.71889" lon="1.96183">
        <ele>114.53</ele>
        <time>2016-03-24T09:26:13Z</time>
      </trkpt>
      <trkpt lat="48.71881" lon="1.96197">
        <ele>114.53</ele>
        <time>2016-03-24T09:26:08Z</time>
      </trkpt>
      <trkpt lat="48.71878" lon="1.96208">
        <ele>114.53</ele>
        <time>2016-03-24T09:26:01Z</time>
      </trkpt>
      <trkpt lat="48.71873" lon="1.96215">
        <ele>114.53</ele>
        <time>2016-03-24T09:25:56Z</time>
      </trkpt>
      <trkpt lat="48.7186" lon="1.96247">
        <ele>114.05</ele>
        <time>2016-03-24T09:25:36Z</time>
      </trkpt>
      <trkpt lat="48.71858" lon="1.96275">
        <ele>114.05</ele>
        <time>2016-03-24T09:25:19Z</time>
      </trkpt>
      <trkpt lat="48.7186" lon="1.96284">
        <ele>114.05</ele>
        <time>2016-03-24T09:25:12Z</time>
      </trkpt>
      <trkpt lat="48.71865" lon="1.96288">
        <ele>114.05</ele>
        <time>2016-03-24T09:25:09Z</time>
      </trkpt>
      <trkpt lat="48.7185" lon="1.96317">
        <ele>114.05</ele>
        <time>2016-03-24T09:24:51Z</time>
      </trkpt>
      <trkpt lat="48.71827" lon="1.96339">
        <ele>114.05</ele>
        <time>2016-03-24T09:24:31Z</time>
      </trkpt>
      <trkpt lat="48.7182" lon="1.96347">
        <ele>114.05</ele>
        <time>2016-03-24T09:24:22Z</time>
      </trkpt>
      <trkpt lat="48.71804" lon="1.96382">
        <ele>114.05</ele>
        <time>2016-03-24T09:24:00Z</time>
      </trkpt>
      <trkpt lat="48.71801" lon="1.96387">
        <ele>114.05</ele>
        <time>2016-03-24T09:23:57Z</time>
      </trkpt>
      <trkpt lat="48.71798" lon="1.96399">
        <ele>114.05</ele>
        <time>2016-03-24T09:23:48Z</time>
      </trkpt>
      <trkpt lat="48.71799" lon="1.96409">
        <ele>114.05</ele>
        <time>2016-03-24T09:23:39Z</time>
      </trkpt>
      <trkpt lat="48.71793" lon="1.96428">
        <ele>114.05</ele>
        <time>2016-03-24T09:23:26Z</time>
      </trkpt>
      <trkpt lat="48.7179" lon="1.96435">
        <ele>114.05</ele>
        <time>2016-03-24T09:23:22Z</time>
      </trkpt>
      <trkpt lat="48.71775" lon="1.96459">
        <ele>114.05</ele>
        <time>2016-03-24T09:23:00Z</time>
      </trkpt>
      <trkpt lat="48.71774" lon="1.96459">
        <ele>114.05</ele>
        <time>2016-03-24T09:22:59Z</time>
      </trkpt>
      <trkpt lat="48.7176" lon="1.96458">
        <ele>114.53</ele>
        <time>2016-03-24T09:22:39Z</time>
      </trkpt>
      <trkpt lat="48.7175" lon="1.96451">
        <ele>115.01</ele>
        <time>2016-03-24T09:22:24Z</time>
      </trkpt>
      <trkpt lat="48.71741" lon="1.96445">
        <ele>115.01</ele>
        <time>2016-03-24T09:22:17Z</time>
      </trkpt>
      <trkpt lat="48.71739" lon="1.96443">
        <ele>115.01</ele>
        <time>2016-03-24T09:22:02Z</time>
      </trkpt>
      <trkpt lat="48.71733" lon="1.96421">
        <ele>115.98</ele>
        <time>2016-03-24T09:21:44Z</time>
      </trkpt>
      <trkpt lat="48.71734" lon="1.96419">
        <ele>115.98</ele>
        <time>2016-03-24T09:21:43Z</time>
      </trkpt>
      <trkpt lat="48.7172" lon="1.96389">
        <ele>115.98</ele>
        <time>2016-03-24T09:21:24Z</time>
      </trkpt>
      <trkpt lat="48.71719" lon="1.96375">
        <ele>116.46</ele>
        <time>2016-03-24T09:21:07Z</time>
      </trkpt>
      <trkpt lat="48.71717" lon="1.96346">
        <ele>116.94</ele>
        <time>2016-03-24T09:20:51Z</time>
      </trkpt>
      <trkpt lat="48.71718" lon="1.96336">
        <ele>116.94</ele>
        <time>2016-03-24T09:20:46Z</time>
      </trkpt>
      <trkpt lat="48.71724" lon="1.96323">
        <ele>116.94</ele>
        <time>2016-03-24T09:20:38Z</time>
      </trkpt>
      <trkpt lat="48.71748" lon="1.96312">
        <ele>116.46</ele>
        <time>2016-03-24T09:20:16Z</time>
      </trkpt>
      <trkpt lat="48.71774" lon="1.96327">
        <ele>115.5</ele>
        <time>2016-03-24T09:19:56Z</time>
      </trkpt>
      <trkpt lat="48.7178" lon="1.96331">
        <ele>115.5</ele>
        <time>2016-03-24T09:19:51Z</time>
      </trkpt>
      <trkpt lat="48.71781" lon="1.96335">
        <ele>115.98</ele>
        <time>2016-03-24T09:19:22Z</time>
      </trkpt>
      <trkpt lat="48.71795" lon="1.96337">
        <ele>115.01</ele>
        <time>2016-03-24T09:19:04Z</time>
      </trkpt>
      <trkpt lat="48.71809" lon="1.96344">
        <ele>114.53</ele>
        <time>2016-03-24T09:18:46Z</time>
      </trkpt>
      <trkpt lat="48.71809" lon="1.96339">
        <ele>114.53</ele>
        <time>2016-03-24T09:18:27Z</time>
      </trkpt>
      <trkpt lat="48.71813" lon="1.96333">
        <ele>114.53</ele>
        <time>2016-03-24T09:18:01Z</time>
      </trkpt>
      <trkpt lat="48.71819" lon="1.96326">
        <ele>114.05</ele>
        <time>2016-03-24T09:17:38Z</time>
      </trkpt>
      <trkpt lat="48.71833" lon="1.9631">
        <ele>114.05</ele>
        <time>2016-03-24T09:17:24Z</time>
      </trkpt>
      <trkpt lat="48.71841" lon="1.96303">
        <ele>114.05</ele>
        <time>2016-03-24T09:17:15Z</time>
      </trkpt>
      <trkpt lat="48.71841" lon="1.96292">
        <ele>114.05</ele>
        <time>2016-03-24T09:17:07Z</time>
      </trkpt>
      <trkpt lat="48.71842" lon="1.9628">
        <ele>114.05</ele>
        <time>2016-03-24T09:17:00Z</time>
      </trkpt>
      <trkpt lat="48.71843" lon="1.96269">
        <ele>114.53</ele>
        <time>2016-03-24T09:16:54Z</time>
      </trkpt>
      <trkpt lat="48.71842" lon="1.96262">
        <ele>114.53</ele>
        <time>2016-03-24T09:16:50Z</time>
      </trkpt>
      <trkpt lat="48.7184" lon="1.96244">
        <ele>114.53</ele>
        <time>2016-03-24T09:16:39Z</time>
      </trkpt>
      <trkpt lat="48.71854" lon="1.96208">
        <ele>114.05</ele>
        <time>2016-03-24T09:16:20Z</time>
      </trkpt>
      <trkpt lat="48.71873" lon="1.96177">
        <ele>114.53</ele>
        <time>2016-03-24T09:15:55Z</time>
      </trkpt>
      <trkpt lat="48.71875" lon="1.96179">
        <ele>114.53</ele>
        <time>2016-03-24T09:15:46Z</time>
      </trkpt>
      <trkpt lat="48.71881" lon="1.96187">
        <ele>114.53</ele>
        <time>2016-03-24T09:15:27Z</time>
      </trkpt>
      <trkpt lat="48.71882" lon="1.96178">
        <ele>114.05</ele>
        <time>2016-03-24T09:15:05Z</time>
      </trkpt>
      <trkpt lat="48.71881" lon="1.96178">
        <ele>114.05</ele>
        <time>2016-03-24T09:14:25Z</time>
      </trkpt>
      <trkpt lat="48.71883" lon="1.96178">
        <ele>113.57</ele>
        <time>2016-03-24T09:14:21Z</time>
      </trkpt>
      <trkpt lat="48.7188" lon="1.9617">
        <ele>113.57</ele>
        <time>2016-03-24T09:14:07Z</time>
      </trkpt>
      <trkpt lat="48.71882" lon="1.96133">
        <ele>113.57</ele>
        <time>2016-03-24T09:13:51Z</time>
      </trkpt>
      <trkpt lat="48.71882" lon="1.96128">
        <ele>113.57</ele>
        <time>2016-03-24T09:13:49Z</time>
      </trkpt>
      <trkpt lat="48.71886" lon="1.96103">
        <ele>113.09</ele>
        <time>2016-03-24T09:13:36Z</time>
      </trkpt>
      <trkpt lat="48.71915" lon="1.96088">
        <ele>113.57</ele>
        <time>2016-03-24T09:13:14Z</time>
      </trkpt>
      <trkpt lat="48.71927" lon="1.96089">
        <ele>113.57</ele>
        <time>2016-03-24T09:13:10Z</time>
      </trkpt>
      <trkpt lat="48.7195" lon="1.96098">
        <ele>113.57</ele>
        <time>2016-03-24T09:12:56Z</time>
      </trkpt>
      <trkpt lat="48.71952" lon="1.96099">
        <ele>113.57</ele>
        <time>2016-03-24T09:12:52Z</time>
      </trkpt>
      <trkpt lat="48.71953" lon="1.96142">
        <ele>114.53</ele>
        <time>2016-03-24T09:12:29Z</time>
      </trkpt>
      <trkpt lat="48.7195" lon="1.96161">
        <ele>114.53</ele>
        <time>2016-03-24T09:12:13Z</time>
      </trkpt>
      <trkpt lat="48.71936" lon="1.96207">
        <ele>114.53</ele>
        <time>2016-03-24T09:11:57Z</time>
      </trkpt>
      <trkpt lat="48.71925" lon="1.96246">
        <ele>115.01</ele>
        <time>2016-03-24T09:11:36Z</time>
      </trkpt>
      <trkpt lat="48.71915" lon="1.96282">
        <ele>114.53</ele>
        <time>2016-03-24T09:11:15Z</time>
      </trkpt>
      <trkpt lat="48.71902" lon="1.96317">
        <ele>112.61</ele>
        <time>2016-03-24T09:10:53Z</time>
      </trkpt>
      <trkpt lat="48.71893" lon="1.96353">
        <ele>112.61</ele>
        <time>2016-03-24T09:10:32Z</time>
      </trkpt>
      <trkpt lat="48.71882" lon="1.96398">
        <ele>112.61</ele>
        <time>2016-03-24T09:10:10Z</time>
      </trkpt>
      <trkpt lat="48.71871" lon="1.9644">
        <ele>113.09</ele>
        <time>2016-03-24T09:09:49Z</time>
      </trkpt>
      <trkpt lat="48.71866" lon="1.96479">
        <ele>113.09</ele>
        <time>2016-03-24T09:09:27Z</time>
      </trkpt>
      <trkpt lat="48.71852" lon="1.96519">
        <ele>112.61</ele>
        <time>2016-03-24T09:09:06Z</time>
      </trkpt>
      <trkpt lat="48.71842" lon="1.96548">
        <ele>112.61</ele>
        <time>2016-03-24T09:08:46Z</time>
      </trkpt>
      <trkpt lat="48.71831" lon="1.96575">
        <ele>110.21</ele>
        <time>2016-03-24T09:08:27Z</time>
      </trkpt>
      <trkpt lat="48.71831" lon="1.96591">
        <ele>109.73</ele>
        <time>2016-03-24T09:08:04Z</time>
      </trkpt>
      <trkpt lat="48.71834" lon="1.96594">
        <ele>110.21</ele>
        <time>2016-03-24T09:08:02Z</time>
      </trkpt>
      <trkpt lat="48.71832" lon="1.96597">
        <ele>110.21</ele>
        <time>2016-03-24T09:07:58Z</time>
      </trkpt>
      <trkpt lat="48.71826" lon="1.96614">
        <ele>110.21</ele>
        <time>2016-03-24T09:07:49Z</time>
      </trkpt>
      <trkpt lat="48.7181" lon="1.96644">
        <ele>110.21</ele>
        <time>2016-03-24T09:07:31Z</time>
      </trkpt>
      <trkpt lat="48.71798" lon="1.96677">
        <ele>110.21</ele>
        <time>2016-03-24T09:07:09Z</time>
      </trkpt>
      <trkpt lat="48.71793" lon="1.96707">
        <ele>110.69</ele>
        <time>2016-03-24T09:06:50Z</time>
      </trkpt>
      <trkpt lat="48.71796" lon="1.96751">
        <ele>110.21</ele>
        <time>2016-03-24T09:06:29Z</time>
      </trkpt>
      <trkpt lat="48.71785" lon="1.968">
        <ele>109.73</ele>
        <time>2016-03-24T09:06:03Z</time>
      </trkpt>
      <trkpt lat="48.71785" lon="1.96813">
        <ele>110.21</ele>
        <time>2016-03-24T09:05:56Z</time>
      </trkpt>
      <trkpt lat="48.71782" lon="1.96845">
        <ele>110.21</ele>
        <time>2016-03-24T09:05:37Z</time>
      </trkpt>
      <trkpt lat="48.71786" lon="1.96887">
        <ele>109.73</ele>
        <time>2016-03-24T09:05:12Z</time>
      </trkpt>
      <trkpt lat="48.71784" lon="1.96898">
        <ele>109.25</ele>
        <time>2016-03-24T09:05:02Z</time>
      </trkpt>
      <trkpt lat="48.71775" lon="1.96903">
        <ele>108.77</ele>
        <time>2016-03-24T09:04:42Z</time>
      </trkpt>
      <trkpt lat="48.7177" lon="1.96918">
        <ele>107.81</ele>
        <time>2016-03-24T09:04:28Z</time>
      </trkpt>
      <trkpt lat="48.71746" lon="1.96901">
        <ele>107.81</ele>
        <time>2016-03-24T09:04:09Z</time>
      </trkpt>
      <trkpt lat="48.71725" lon="1.96884">
        <ele>107.81</ele>
        <time>2016-03-24T09:03:52Z</time>
      </trkpt>
      <trkpt lat="48.71722" lon="1.96881">
        <ele>107.81</ele>
        <time>2016-03-24T09:03:49Z</time>
      </trkpt>
      <trkpt lat="48.71701" lon="1.96864">
        <ele>107.81</ele>
        <time>2016-03-24T09:03:32Z</time>
      </trkpt>
      <trkpt lat="48.71679" lon="1.96859">
        <ele>107.81</ele>
        <time>2016-03-24T09:03:13Z</time>
      </trkpt>
      <trkpt lat="48.71662" lon="1.96853">
        <ele>108.29</ele>
        <time>2016-03-24T09:02:58Z</time>
      </trkpt>
      <trkpt lat="48.71633" lon="1.96857">
        <ele>107.81</ele>
        <time>2016-03-24T09:02:40Z</time>
      </trkpt>
      <trkpt lat="48.71609" lon="1.96866">
        <ele>108.29</ele>
        <time>2016-03-24T09:02:23Z</time>
      </trkpt>
      <trkpt lat="48.71601" lon="1.96868">
        <ele>108.77</ele>
        <time>2016-03-24T09:02:14Z</time>
      </trkpt>
      <trkpt lat="48.71584" lon="1.96865">
        <ele>110.69</ele>
        <time>2016-03-24T09:01:58Z</time>
      </trkpt>
      <trkpt lat="48.71557" lon="1.9685">
        <ele>113.57</ele>
        <time>2016-03-24T09:01:37Z</time>
      </trkpt>
      <trkpt lat="48.71548" lon="1.96846">
        <ele>114.05</ele>
        <time>2016-03-24T09:01:31Z</time>
      </trkpt>
      <trkpt lat="48.71525" lon="1.96834">
        <ele>116.46</ele>
        <time>2016-03-24T09:01:12Z</time>
      </trkpt>
      <trkpt lat="48.71508" lon="1.96825">
        <ele>117.9</ele>
        <time>2016-03-24T09:00:57Z</time>
      </trkpt>
      <trkpt lat="48.71507" lon="1.96825">
        <ele>117.9</ele>
        <time>2016-03-24T09:00:56Z</time>
      </trkpt>
      <trkpt lat="48.71492" lon="1.96821">
        <ele>118.86</ele>
        <time>2016-03-24T09:00:41Z</time>
      </trkpt>
      <trkpt lat="48.71486" lon="1.96819">
        <ele>119.34</ele>
        <time>2016-03-24T09:00:36Z</time>
      </trkpt>
      <trkpt lat="48.71481" lon="1.96818">
        <ele>119.82</ele>
        <time>2016-03-24T09:00:32Z</time>
      </trkpt>
      <trkpt lat="48.71473" lon="1.96819">
        <ele>120.3</ele>
        <time>2016-03-24T09:00:23Z</time>
      </trkpt>
      <trkpt lat="48.71461" lon="1.96848">
        <ele>121.26</ele>
        <time>2016-03-24T09:00:04Z</time>
      </trkpt>
      <trkpt lat="48.71461" lon="1.96854">
        <ele>121.26</ele>
        <time>2016-03-24T08:59:59Z</time>
      </trkpt>
      <trkpt lat="48.71456" lon="1.96894">
        <ele>121.74</ele>
        <time>2016-03-24T08:59:41Z</time>
      </trkpt>
      <trkpt lat="48.71457" lon="1.96901">
        <ele>121.74</ele>
        <time>2016-03-24T08:59:37Z</time>
      </trkpt>
      <trkpt lat="48.71456" lon="1.96921">
        <ele>121.26</ele>
        <time>2016-03-24T08:59:24Z</time>
      </trkpt>
      <trkpt lat="48.71453" lon="1.96934">
        <ele>120.78</ele>
        <time>2016-03-24T08:59:15Z</time>
      </trkpt>
      <trkpt lat="48.7145" lon="1.96936">
        <ele>120.78</ele>
        <time>2016-03-24T08:59:13Z</time>
      </trkpt>
      <trkpt lat="48.7144" lon="1.96933">
        <ele>120.78</ele>
        <time>2016-03-24T08:59:04Z</time>
      </trkpt>
      <trkpt lat="48.71436" lon="1.96933">
        <ele>120.78</ele>
        <time>2016-03-24T08:59:02Z</time>
      </trkpt>
      <trkpt lat="48.71418" lon="1.96919">
        <ele>122.22</ele>
        <time>2016-03-24T08:58:42Z</time>
      </trkpt>
      <trkpt lat="48.71401" lon="1.96902">
        <ele>125.11</ele>
        <time>2016-03-24T08:58:24Z</time>
      </trkpt>
      <trkpt lat="48.71384" lon="1.96881">
        <ele>127.99</ele>
        <time>2016-03-24T08:58:06Z</time>
      </trkpt>
      <trkpt lat="48.71364" lon="1.96869">
        <ele>130.4</ele>
        <time>2016-03-24T08:57:49Z</time>
      </trkpt>
      <trkpt lat="48.71361" lon="1.96871">
        <ele>131.36</ele>
        <time>2016-03-24T08:57:46Z</time>
      </trkpt>
      <trkpt lat="48.7133" lon="1.96855">
        <ele>133.76</ele>
        <time>2016-03-24T08:57:30Z</time>
      </trkpt>
      <trkpt lat="48.71305" lon="1.96839">
        <ele>136.16</ele>
        <time>2016-03-24T08:57:17Z</time>
      </trkpt>
      <trkpt lat="48.71302" lon="1.96837">
        <ele>136.64</ele>
        <time>2016-03-24T08:57:15Z</time>
      </trkpt>
      <trkpt lat="48.71289" lon="1.96822">
        <ele>139.05</ele>
        <time>2016-03-24T08:57:02Z</time>
      </trkpt>
      <trkpt lat="48.71273" lon="1.96806">
        <ele>142.41</ele>
        <time>2016-03-24T08:56:44Z</time>
      </trkpt>
      <trkpt lat="48.71267" lon="1.96801">
        <ele>143.37</ele>
        <time>2016-03-24T08:56:38Z</time>
      </trkpt>
      <trkpt lat="48.71253" lon="1.96779">
        <ele>146.26</ele>
        <time>2016-03-24T08:56:20Z</time>
      </trkpt>
      <trkpt lat="48.71234" lon="1.96766">
        <ele>149.14</ele>
        <time>2016-03-24T08:56:02Z</time>
      </trkpt>
      <trkpt lat="48.71212" lon="1.96758">
        <ele>152.51</ele>
        <time>2016-03-24T08:55:41Z</time>
      </trkpt>
      <trkpt lat="48.71186" lon="1.96762">
        <ele>155.39</ele>
        <time>2016-03-24T08:55:18Z</time>
      </trkpt>
      <trkpt lat="48.71166" lon="1.96765">
        <ele>156.83</ele>
        <time>2016-03-24T08:55:02Z</time>
      </trkpt>
      <trkpt lat="48.71152" lon="1.96759">
        <ele>157.79</ele>
        <time>2016-03-24T08:54:48Z</time>
      </trkpt>
      <trkpt lat="48.71132" lon="1.96762">
        <ele>158.27</ele>
        <time>2016-03-24T08:54:31Z</time>
      </trkpt>
      <trkpt lat="48.71114" lon="1.96766">
        <ele>158.75</ele>
        <time>2016-03-24T08:54:18Z</time>
      </trkpt>
      <trkpt lat="48.71097" lon="1.96772">
        <ele>158.75</ele>
        <time>2016-03-24T08:54:06Z</time>
      </trkpt>
      <trkpt lat="48.71072" lon="1.96777">
        <ele>159.24</ele>
        <time>2016-03-24T08:53:48Z</time>
      </trkpt>
      <trkpt lat="48.71065" lon="1.96781">
        <ele>159.24</ele>
        <time>2016-03-24T08:53:44Z</time>
      </trkpt>
      <trkpt lat="48.71054" lon="1.96788">
        <ele>159.24</ele>
        <time>2016-03-24T08:53:37Z</time>
      </trkpt>
      <trkpt lat="48.71041" lon="1.96791">
        <ele>159.72</ele>
        <time>2016-03-24T08:53:25Z</time>
      </trkpt>
      <trkpt lat="48.71021" lon="1.96795">
        <ele>159.72</ele>
        <time>2016-03-24T08:53:10Z</time>
      </trkpt>
      <trkpt lat="48.71016" lon="1.96797">
        <ele>159.72</ele>
        <time>2016-03-24T08:53:06Z</time>
      </trkpt>
      <trkpt lat="48.71007" lon="1.96801">
        <ele>159.72</ele>
        <time>2016-03-24T08:53:01Z</time>
      </trkpt>
      <trkpt lat="48.70982" lon="1.96808">
        <ele>159.72</ele>
        <time>2016-03-24T08:52:43Z</time>
      </trkpt>
      <trkpt lat="48.70961" lon="1.96814">
        <ele>159.72</ele>
        <time>2016-03-24T08:52:27Z</time>
      </trkpt>
      <trkpt lat="48.70946" lon="1.96819">
        <ele>159.72</ele>
        <time>2016-03-24T08:52:15Z</time>
      </trkpt>
      <trkpt lat="48.70939" lon="1.9682">
        <ele>159.24</ele>
        <time>2016-03-24T08:52:10Z</time>
      </trkpt>
      <trkpt lat="48.70909" lon="1.96831">
        <ele>159.24</ele>
        <time>2016-03-24T08:51:53Z</time>
      </trkpt>
      <trkpt lat="48.70906" lon="1.96834">
        <ele>159.24</ele>
        <time>2016-03-24T08:51:51Z</time>
      </trkpt>
      <trkpt lat="48.70892" lon="1.96856">
        <ele>158.75</ele>
        <time>2016-03-24T08:51:37Z</time>
      </trkpt>
      <trkpt lat="48.70877" lon="1.9688">
        <ele>157.79</ele>
        <time>2016-03-24T08:51:21Z</time>
      </trkpt>
      <trkpt lat="48.70862" lon="1.96904">
        <ele>157.31</ele>
        <time>2016-03-24T08:51:06Z</time>
      </trkpt>
      <trkpt lat="48.7084" lon="1.96934">
        <ele>156.35</ele>
        <time>2016-03-24T08:50:48Z</time>
      </trkpt>
      <trkpt lat="48.70828" lon="1.96952">
        <ele>155.87</ele>
        <time>2016-03-24T08:50:38Z</time>
      </trkpt>
      <trkpt lat="48.70817" lon="1.96968">
        <ele>155.39</ele>
        <time>2016-03-24T08:50:24Z</time>
      </trkpt>
      <trkpt lat="48.7081" lon="1.96977">
        <ele>155.39</ele>
        <time>2016-03-24T08:50:16Z</time>
      </trkpt>
      <trkpt lat="48.70785" lon="1.97018">
        <ele>156.35</ele>
        <time>2016-03-24T08:49:57Z</time>
      </trkpt>
      <trkpt lat="48.70763" lon="1.97084">
        <ele>156.83</ele>
        <time>2016-03-24T08:49:35Z</time>
      </trkpt>
      <trkpt lat="48.70752" lon="1.97123">
        <ele>156.83</ele>
        <time>2016-03-24T08:49:18Z</time>
      </trkpt>
      <trkpt lat="48.70738" lon="1.97172">
        <ele>156.35</ele>
        <time>2016-03-24T08:48:57Z</time>
      </trkpt>
      <trkpt lat="48.70731" lon="1.97195">
        <ele>156.35</ele>
        <time>2016-03-24T08:48:46Z</time>
      </trkpt>
      <trkpt lat="48.70726" lon="1.97229">
        <ele>156.35</ele>
        <time>2016-03-24T08:48:23Z</time>
      </trkpt>
      <trkpt lat="48.70712" lon="1.97264">
        <ele>155.87</ele>
        <time>2016-03-24T08:47:59Z</time>
      </trkpt>
      <trkpt lat="48.70701" lon="1.97304">
        <ele>154.91</ele>
        <time>2016-03-24T08:47:39Z</time>
      </trkpt>
      <trkpt lat="48.70686" lon="1.97349">
        <ele>153.47</ele>
        <time>2016-03-24T08:47:15Z</time>
      </trkpt>
      <trkpt lat="48.70674" lon="1.97394">
        <ele>151.54</ele>
        <time>2016-03-24T08:46:51Z</time>
      </trkpt>
      <trkpt lat="48.70663" lon="1.97429">
        <ele>149.62</ele>
        <time>2016-03-24T08:46:29Z</time>
      </trkpt>
      <trkpt lat="48.70657" lon="1.97438">
        <ele>149.62</ele>
        <time>2016-03-24T08:46:20Z</time>
      </trkpt>
      <trkpt lat="48.70656" lon="1.97448">
        <ele>149.62</ele>
        <time>2016-03-24T08:46:14Z</time>
      </trkpt>
      <trkpt lat="48.70656" lon="1.97457">
        <ele>150.1</ele>
        <time>2016-03-24T08:46:11Z</time>
      </trkpt>
      <trkpt lat="48.70645" lon="1.97516">
        <ele>152.03</ele>
        <time>2016-03-24T08:45:48Z</time>
      </trkpt>
      <trkpt lat="48.70633" lon="1.97571">
        <ele>153.47</ele>
        <time>2016-03-24T08:45:24Z</time>
      </trkpt>
      <trkpt lat="48.70627" lon="1.97631">
        <ele>154.43</ele>
        <time>2016-03-24T08:44:55Z</time>
      </trkpt>
      <trkpt lat="48.70612" lon="1.97686">
        <ele>154.91</ele>
        <time>2016-03-24T08:44:28Z</time>
      </trkpt>
      <trkpt lat="48.70613" lon="1.977">
        <ele>154.91</ele>
        <time>2016-03-24T08:44:23Z</time>
      </trkpt>
      <trkpt lat="48.70606" lon="1.9775">
        <ele>155.39</ele>
        <time>2016-03-24T08:43:58Z</time>
      </trkpt>
      <trkpt lat="48.70597" lon="1.978">
        <ele>155.39</ele>
        <time>2016-03-24T08:43:28Z</time>
      </trkpt>
      <trkpt lat="48.70588" lon="1.97828">
        <ele>154.91</ele>
        <time>2016-03-24T08:43:12Z</time>
      </trkpt>
      <trkpt lat="48.70582" lon="1.97838">
        <ele>154.91</ele>
        <time>2016-03-24T08:43:08Z</time>
      </trkpt>
      <trkpt lat="48.70578" lon="1.97848">
        <ele>154.91</ele>
        <time>2016-03-24T08:43:02Z</time>
      </trkpt>
      <trkpt lat="48.70575" lon="1.9786">
        <ele>154.91</ele>
        <time>2016-03-24T08:42:52Z</time>
      </trkpt>
      <trkpt lat="48.70563" lon="1.97893">
        <ele>153.47</ele>
        <time>2016-03-24T08:42:31Z</time>
      </trkpt>
      <trkpt lat="48.70565" lon="1.97912">
        <ele>152.99</ele>
        <time>2016-03-24T08:42:13Z</time>
      </trkpt>
      <trkpt lat="48.70588" lon="1.97932">
        <ele>153.47</ele>
        <time>2016-03-24T08:41:58Z</time>
      </trkpt>
      <trkpt lat="48.70598" lon="1.97957">
        <ele>153.47</ele>
        <time>2016-03-24T08:41:42Z</time>
      </trkpt>
      <trkpt lat="48.70611" lon="1.97987">
        <ele>153.95</ele>
        <time>2016-03-24T08:41:25Z</time>
      </trkpt>
      <trkpt lat="48.70613" lon="1.97994">
        <ele>153.95</ele>
        <time>2016-03-24T08:41:21Z</time>
      </trkpt>
      <trkpt lat="48.70613" lon="1.98004">
        <ele>153.95</ele>
        <time>2016-03-24T08:41:16Z</time>
      </trkpt>
      <trkpt lat="48.70612" lon="1.98013">
        <ele>153.95</ele>
        <time>2016-03-24T08:41:12Z</time>
      </trkpt>
      <trkpt lat="48.7061" lon="1.98024">
        <ele>153.95</ele>
        <time>2016-03-24T08:41:07Z</time>
      </trkpt>
      <trkpt lat="48.70609" lon="1.98062">
        <ele>153.95</ele>
        <time>2016-03-24T08:40:50Z</time>
      </trkpt>
      <trkpt lat="48.7061" lon="1.98102">
        <ele>154.43</ele>
        <time>2016-03-24T08:40:31Z</time>
      </trkpt>
      <trkpt lat="48.70616" lon="1.98124">
        <ele>153.95</ele>
        <time>2016-03-24T08:40:14Z</time>
      </trkpt>
      <trkpt lat="48.70618" lon="1.98129">
        <ele>153.95</ele>
        <time>2016-03-24T08:40:10Z</time>
      </trkpt>
      <trkpt lat="48.70617" lon="1.98132">
        <ele>153.47</ele>
        <time>2016-03-24T08:40:08Z</time>
      </trkpt>
      <trkpt lat="48.70616" lon="1.98138">
        <ele>153.47</ele>
        <time>2016-03-24T08:40:04Z</time>
      </trkpt>
      <trkpt lat="48.70617" lon="1.98141">
        <ele>152.99</ele>
        <time>2016-03-24T08:40:02Z</time>
      </trkpt>
      <trkpt lat="48.70629" lon="1.98168">
        <ele>152.03</ele>
        <time>2016-03-24T08:39:43Z</time>
      </trkpt>
      <trkpt lat="48.70629" lon="1.98175">
        <ele>152.03</ele>
        <time>2016-03-24T08:39:39Z</time>
      </trkpt>
      <trkpt lat="48.7063" lon="1.98177">
        <ele>152.03</ele>
        <time>2016-03-24T08:39:36Z</time>
      </trkpt>
      <trkpt lat="48.70631" lon="1.98179">
        <ele>152.03</ele>
        <time>2016-03-24T08:39:31Z</time>
      </trkpt>
      <trkpt lat="48.70631" lon="1.98181">
        <ele>152.03</ele>
        <time>2016-03-24T08:39:29Z</time>
      </trkpt>
      <trkpt lat="48.70631" lon="1.98186">
        <ele>152.03</ele>
        <time>2016-03-24T08:39:12Z</time>
      </trkpt>
      <trkpt lat="48.70634" lon="1.98194">
        <ele>152.03</ele>
        <time>2016-03-24T08:38:54Z</time>
      </trkpt>
      <trkpt lat="48.70636" lon="1.98212">
        <ele>152.03</ele>
        <time>2016-03-24T08:38:31Z</time>
      </trkpt>
      <trkpt lat="48.70635" lon="1.98215">
        <ele>152.03</ele>
        <time>2016-03-24T08:38:26Z</time>
      </trkpt>
      <trkpt lat="48.70641" lon="1.98249">
        <ele>150.58</ele>
        <time>2016-03-24T08:38:00Z</time>
      </trkpt>
      <trkpt lat="48.70642" lon="1.98252">
        <ele>150.1</ele>
        <time>2016-03-24T08:37:58Z</time>
      </trkpt>
      <trkpt lat="48.70643" lon="1.98257">
        <ele>150.1</ele>
        <time>2016-03-24T08:37:55Z</time>
      </trkpt>
      <trkpt lat="48.70641" lon="1.98278">
        <ele>148.66</ele>
        <time>2016-03-24T08:37:46Z</time>
      </trkpt>
      <trkpt lat="48.70652" lon="1.98303">
        <ele>146.74</ele>
        <time>2016-03-24T08:37:32Z</time>
      </trkpt>
      <trkpt lat="48.70657" lon="1.98326">
        <ele>144.34</ele>
        <time>2016-03-24T08:37:18Z</time>
      </trkpt>
      <trkpt lat="48.70662" lon="1.9836">
        <ele>140.97</ele>
        <time>2016-03-24T08:37:02Z</time>
      </trkpt>
      <trkpt lat="48.70664" lon="1.98381">
        <ele>139.05</ele>
        <time>2016-03-24T08:36:53Z</time>
      </trkpt>
      <trkpt lat="48.70664" lon="1.98383">
        <ele>139.05</ele>
        <time>2016-03-24T08:36:52Z</time>
      </trkpt>
      <trkpt lat="48.70663" lon="1.98416">
        <ele>135.68</ele>
        <time>2016-03-24T08:36:34Z</time>
      </trkpt>
      <trkpt lat="48.70663" lon="1.98418">
        <ele>135.68</ele>
        <time>2016-03-24T08:36:32Z</time>
      </trkpt>
      <trkpt lat="48.70659" lon="1.98438">
        <ele>134.24</ele>
        <time>2016-03-24T08:36:21Z</time>
      </trkpt>
      <trkpt lat="48.70675" lon="1.98458">
        <ele>131.36</ele>
        <time>2016-03-24T08:36:03Z</time>
      </trkpt>
      <trkpt lat="48.70686" lon="1.98482">
        <ele>127.51</ele>
        <time>2016-03-24T08:35:46Z</time>
      </trkpt>
      <trkpt lat="48.70684" lon="1.98529">
        <ele>125.11</ele>
        <time>2016-03-24T08:35:29Z</time>
      </trkpt>
      <trkpt lat="48.7069" lon="1.98539">
        <ele>124.15</ele>
        <time>2016-03-24T08:35:05Z</time>
      </trkpt>
      <trkpt lat="48.70682" lon="1.98543">
        <ele>124.15</ele>
        <time>2016-03-24T08:34:44Z</time>
      </trkpt>
      <trkpt lat="48.7068" lon="1.98547">
        <ele>123.67</ele>
        <time>2016-03-24T08:34:23Z</time>
      </trkpt>
      <trkpt lat="48.70676" lon="1.98555">
        <ele>121.26</ele>
        <time>2016-03-24T08:34:07Z</time>
      </trkpt>
      <trkpt lat="48.70665" lon="1.98576">
        <ele>119.34</ele>
        <time>2016-03-24T08:33:54Z</time>
      </trkpt>
      <trkpt lat="48.70641" lon="1.98594">
        <ele>116.46</ele>
        <time>2016-03-24T08:33:38Z</time>
      </trkpt>
      <trkpt lat="48.70628" lon="1.98584">
        <ele>114.05</ele>
        <time>2016-03-24T08:33:24Z</time>
      </trkpt>
      <trkpt lat="48.70633" lon="1.98565">
        <ele>112.61</ele>
        <time>2016-03-24T08:33:20Z</time>
      </trkpt>
      <trkpt lat="48.70628" lon="1.98554">
        <ele>111.17</ele>
        <time>2016-03-24T08:33:13Z</time>
      </trkpt>
      <trkpt lat="48.70616" lon="1.98561">
        <ele>107.81</ele>
        <time>2016-03-24T08:33:02Z</time>
      </trkpt>
      <trkpt lat="48.70602" lon="1.98589">
        <ele>104.92</ele>
        <time>2016-03-24T08:32:49Z</time>
      </trkpt>
      <trkpt lat="48.70586" lon="1.98613">
        <ele>102.04</ele>
        <time>2016-03-24T08:32:38Z</time>
      </trkpt>
      <trkpt lat="48.70567" lon="1.98641">
        <ele>99.63</ele>
        <time>2016-03-24T08:32:23Z</time>
      </trkpt>
      <trkpt lat="48.70539" lon="1.98677">
        <ele>98.19</ele>
        <time>2016-03-24T08:32:12Z</time>
      </trkpt>
      <trkpt lat="48.70538" lon="1.98684">
        <ele>97.71</ele>
        <time>2016-03-24T08:32:08Z</time>
      </trkpt>
      <trkpt lat="48.7054" lon="1.98692">
        <ele>97.71</ele>
        <time>2016-03-24T08:32:01Z</time>
      </trkpt>
      <trkpt lat="48.7055" lon="1.98701">
        <ele>97.23</ele>
        <time>2016-03-24T08:31:53Z</time>
      </trkpt>
      <trkpt lat="48.70567" lon="1.98693">
        <ele>97.23</ele>
        <time>2016-03-24T08:31:36Z</time>
      </trkpt>
      <trkpt lat="48.70604" lon="1.98647">
        <ele>97.71</ele>
        <time>2016-03-24T08:31:25Z</time>
      </trkpt>
      <trkpt lat="48.7062" lon="1.98629">
        <ele>97.23</ele>
        <time>2016-03-24T08:31:15Z</time>
      </trkpt>
      <trkpt lat="48.7062" lon="1.9863">
        <ele>97.23</ele>
        <time>2016-03-24T08:31:14Z</time>
      </trkpt>
    </trkseg>
  </trk>
</gpx>